createdAt,value
2019-05-22T00:02:06.978Z,30.80
2019-05-22T00:07:16.498Z,29.43
2019-05-22T00:12:25.502Z,27.20
2019-05-22T00:17:34.544Z,26.30
2019-05-22T00:22:44.208Z,28.63
2019-05-22T00:27:55.075Z,31.20
2019-05-22T00:33:03.014Z,31.70
2019-05-22T00:38:12.362Z,33.10
2019-05-22T00:43:30.331Z,35.90
2019-05-22T00:48:42.204Z,34.33
2019-05-22T00:54:09.887Z,38.13
2019-05-22T00:59:25.421Z,38.53
2019-05-22T01:04:38.708Z,39.57
2019-05-22T01:09:47.720Z,38.63
2019-05-22T01:14:55.462Z,39.20
2019-05-22T01:20:05.304Z,41.40
2019-05-22T01:25:17.555Z,44.87
2019-05-22T01:30:47.016Z,43.37
2019-05-22T01:36:21.027Z,39.00
2019-05-22T01:41:33.313Z,43.13
2019-05-22T01:46:45.826Z,46.33
2019-05-22T01:51:56.122Z,43.30
2019-05-22T01:57:05.768Z,44.87
2019-05-22T02:02:16.656Z,51.50
2019-05-22T02:07:25.623Z,48.87
2019-05-22T02:12:55.215Z,49.47
2019-05-22T02:18:07.814Z,43.53
2019-05-22T02:23:17.377Z,36.47
2019-05-22T02:28:25.487Z,32.97
2019-05-22T02:33:34.472Z,30.60
2019-05-22T02:38:42.307Z,32.03
2019-05-22T02:43:50.191Z,34.83
2019-05-22T02:48:58.860Z,36.30
2019-05-22T02:54:07.162Z,37.70
2019-05-22T02:59:15.491Z,40.43
2019-05-22T03:04:24.777Z,39.80
2019-05-22T03:09:32.361Z,39.73
2019-05-22T03:14:41.387Z,36.80
2019-05-22T03:19:50.956Z,39.43
2019-05-22T03:25:02.311Z,28.53
2019-05-22T03:30:21.855Z,30.20
2019-05-22T03:35:31.884Z,24.40
2019-05-22T03:40:39.728Z,25.00
2019-05-22T03:45:48.196Z,25.60
2019-05-22T03:51:07.379Z,26.10
2019-05-22T03:56:18.509Z,24.47
2019-05-22T04:01:26.458Z,19.50
2019-05-22T04:06:34.478Z,18.30
2019-05-22T04:11:46.768Z,18.10
2019-05-22T04:16:55.628Z,21.53
2019-05-22T04:22:03.924Z,23.80
2019-05-22T04:27:12.284Z,26.60
2019-05-22T04:32:37.647Z,26.60
2019-05-22T04:37:47.355Z,29.37
2019-05-22T04:42:56.851Z,30.70
2019-05-22T04:48:05.697Z,30.80
2019-05-22T04:53:13.842Z,32.33
2019-05-22T04:58:32.232Z,26.33
2019-05-22T05:03:39.802Z,26.13
2019-05-22T05:08:47.389Z,40.37
2019-05-22T05:13:55.531Z,81.60
2019-05-22T05:19:03.252Z,65.13
2019-05-22T05:24:11.319Z,53.63
2019-05-22T05:29:31.328Z,46.50
2019-05-22T05:34:55.781Z,41.00
2019-05-22T05:40:39.679Z,37.70
2019-05-22T05:45:51.118Z,32.53
2019-05-22T05:51:45.920Z,32.67
2019-05-22T05:56:55.614Z,35.27
2019-05-22T06:02:04.902Z,37.17
2019-05-22T06:07:29.971Z,31.43
2019-05-22T06:12:38.016Z,34.80
2019-05-22T06:18:35.019Z,44.77
2019-05-22T06:24:25.845Z,51.93
2019-05-22T06:29:55.867Z,49.77
2019-05-22T06:35:05.025Z,53.73
2019-05-22T06:40:18.801Z,61.70
2019-05-22T06:45:27.509Z,58.23
2019-05-22T06:50:35.199Z,68.07
2019-05-22T06:55:44.533Z,70.23
2019-05-22T07:00:52.282Z,74.57
2019-05-22T07:05:59.801Z,71.97
2019-05-22T07:11:07.786Z,65.60
2019-05-22T07:16:15.985Z,66.47
2019-05-22T07:21:33.705Z,71.37
2019-05-22T07:26:32.906Z,64.13
2019-05-22T07:31:41.097Z,64.33
2019-05-22T07:36:48.495Z,65.27
2019-05-22T07:41:56.147Z,57.53
2019-05-22T07:47:05.590Z,56.57
2019-05-22T07:52:13.485Z,51.80
2019-05-22T07:57:25.429Z,60.67
2019-05-22T08:02:41.276Z,57.70
2019-05-22T08:07:50.797Z,71.13
2019-05-22T08:12:59.229Z,64.70
2019-05-22T08:18:06.671Z,58.30
2019-05-22T08:23:14.344Z,65.77
2019-05-22T08:28:23.970Z,62.17
2019-05-22T08:33:32.738Z,54.33
2019-05-22T08:38:42.247Z,48.87
2019-05-22T08:44:13.554Z,47.17
2019-05-22T08:49:00.017Z,57.47
2019-05-22T08:54:09.099Z,51.73
2019-05-22T08:59:19.875Z,51.60
2019-05-22T09:04:27.109Z,51.40
2019-05-22T09:09:35.010Z,49.97
2019-05-22T09:14:43.548Z,48.17
2019-05-22T09:19:51.537Z,45.30
2019-05-22T09:25:00.190Z,43.47
2019-05-22T09:30:09.591Z,36.47
2019-05-22T09:35:18.196Z,32.57
2019-05-22T09:40:26.017Z,29.10
2019-05-22T09:45:33.610Z,29.77
2019-05-22T09:50:42.090Z,26.57
2019-05-22T09:55:50.208Z,25.73
2019-05-22T10:00:58.027Z,30.87
2019-05-22T10:06:06.188Z,29.50
2019-05-22T10:11:15.333Z,28.40
2019-05-22T10:16:22.888Z,24.83
2019-05-22T10:21:30.955Z,31.03
2019-05-22T10:26:38.514Z,30.97
2019-05-22T10:31:46.475Z,30.63
2019-05-22T10:36:54.125Z,30.03
2019-05-22T10:42:01.597Z,31.03
2019-05-22T10:47:10.049Z,29.13
2019-05-22T10:52:17.674Z,31.67
2019-05-22T10:57:25.758Z,30.77
2019-05-22T11:02:33.649Z,30.13
2019-05-22T11:07:41.843Z,32.93
2019-05-22T11:12:49.560Z,35.60
2019-05-22T11:17:58.602Z,35.70
2019-05-22T11:23:07.464Z,33.67
2019-05-22T11:28:14.929Z,33.10
2019-05-22T11:33:22.526Z,31.27
2019-05-22T11:38:30.467Z,35.53
2019-05-22T11:43:38.246Z,34.07
2019-05-22T11:48:45.602Z,35.73
2019-05-22T11:54:08.097Z,32.50
2019-05-22T11:59:02.141Z,31.03
2019-05-22T12:04:12.537Z,29.43
2019-05-22T12:09:20.186Z,30.17
2019-05-22T12:14:27.705Z,31.93
2019-05-22T12:19:35.088Z,31.73
2019-05-22T12:24:42.719Z,32.27
2019-05-22T12:29:51.419Z,37.30
2019-05-22T12:34:59.216Z,34.17
2019-05-22T12:40:09.196Z,27.93
2019-05-22T12:45:19.035Z,26.47
2019-05-22T12:50:31.927Z,24.67
2019-05-22T12:55:39.806Z,22.77
2019-05-22T13:00:48.184Z,23.97
2019-05-22T13:05:56.328Z,25.93
2019-05-22T13:11:05.518Z,25.67
2019-05-22T13:16:14.828Z,21.90
2019-05-22T13:21:26.261Z,22.80
2019-05-22T13:26:36.948Z,20.63
2019-05-22T13:31:45.893Z,20.13
2019-05-22T13:36:56.880Z,19.03
2019-05-22T13:42:03.814Z,17.83
2019-05-22T13:47:12.685Z,17.87
2019-05-22T13:52:26.993Z,16.23
2019-05-22T13:57:34.385Z,16.73
2019-05-22T14:02:42.407Z,17.90
2019-05-22T14:07:51.131Z,20.17
2019-05-22T14:12:58.964Z,19.90
2019-05-22T14:18:07.079Z,18.90
2019-05-22T14:23:16.322Z,24.17
2019-05-22T14:28:26.898Z,18.87
2019-05-22T14:33:35.043Z,18.70
2019-05-22T14:38:43.543Z,20.23
2019-05-22T14:43:50.989Z,24.40
2019-05-22T14:48:58.738Z,22.80
2019-05-22T14:54:09.416Z,19.53
2019-05-22T14:59:17.783Z,21.10
2019-05-22T15:04:28.390Z,18.70
2019-05-22T15:09:36.143Z,21.67
2019-05-22T15:14:44.470Z,23.17
2019-05-22T15:19:52.143Z,21.20
2019-05-22T15:25:00.144Z,23.00
2019-05-22T15:30:09.744Z,21.87
2019-05-22T15:35:20.201Z,23.50
2019-05-22T15:40:28.871Z,20.43
2019-05-22T15:45:37.924Z,21.90
2019-05-22T15:50:48.297Z,22.00
2019-05-22T15:55:58.268Z,24.63
2019-05-22T16:01:08.399Z,23.23
2019-05-22T16:06:18.626Z,19.17
2019-05-22T16:11:30.101Z,24.40
2019-05-22T16:16:39.236Z,20.37
2019-05-22T16:21:52.885Z,22.40
2019-05-22T16:27:01.635Z,24.80
2019-05-22T16:32:14.178Z,27.70
2019-05-22T16:37:23.155Z,25.10
2019-05-22T16:42:34.284Z,24.87
2019-05-22T16:47:42.491Z,27.53
2019-05-22T16:52:50.422Z,29.20
2019-05-22T16:57:58.014Z,26.87
2019-05-22T17:03:06.586Z,25.13
2019-05-22T17:08:16.407Z,27.33
2019-05-22T17:13:24.863Z,25.93
2019-05-22T17:18:46.623Z,27.90
2019-05-22T17:23:45.599Z,30.77
2019-05-22T17:28:53.265Z,33.53
2019-05-22T17:34:02.387Z,30.37
2019-05-22T17:39:12.900Z,32.23
2019-05-22T17:44:21.583Z,33.07
2019-05-22T17:49:30.148Z,31.50
2019-05-22T17:54:37.561Z,33.67
2019-05-22T17:59:44.952Z,29.60
2019-05-22T18:04:52.732Z,36.30
2019-05-22T18:10:00.510Z,32.47
2019-05-22T18:15:10.175Z,45.30
2019-05-22T18:20:20.001Z,32.40
2019-05-22T18:25:27.757Z,31.13
2019-05-22T18:30:38.287Z,34.17
2019-05-22T18:35:45.855Z,30.50
2019-05-22T18:40:53.172Z,30.43
2019-05-22T18:46:01.082Z,31.17
2019-05-22T18:51:09.997Z,29.00
2019-05-22T18:56:17.421Z,28.27
2019-05-22T19:01:25.006Z,29.63
2019-05-22T19:06:32.380Z,25.53
2019-05-22T19:11:41.409Z,29.27
2019-05-22T19:16:48.923Z,27.57
2019-05-22T19:21:56.444Z,27.87
2019-05-22T19:27:03.985Z,27.37
2019-05-22T19:32:11.528Z,26.73
2019-05-22T19:37:20.035Z,24.97
2019-05-22T19:42:27.582Z,26.03
2019-05-22T19:47:35.353Z,24.97
2019-05-22T19:52:44.673Z,25.87
2019-05-22T19:57:52.648Z,24.70
2019-05-22T20:03:00.320Z,25.20
2019-05-22T20:08:10.521Z,28.03
2019-05-22T20:13:21.015Z,26.27
2019-05-22T20:18:28.993Z,20.37
2019-05-22T20:23:37.107Z,21.00
2019-05-22T20:28:44.601Z,21.30
2019-05-22T20:33:52.525Z,20.43
2019-05-22T20:39:01.518Z,19.43
2019-05-22T20:44:11.723Z,20.37
2019-05-22T20:49:20.064Z,16.80
2019-05-22T20:54:28.689Z,21.97
2019-05-22T20:59:36.399Z,18.20
2019-05-22T21:04:46.132Z,17.67
2019-05-22T21:09:54.360Z,20.13
2019-05-22T21:15:02.175Z,17.87
2019-05-22T21:20:13.935Z,22.17
2019-05-22T21:25:21.777Z,21.63
2019-05-22T21:30:30.177Z,20.30
2019-05-22T21:35:39.205Z,20.93
2019-05-22T21:40:46.623Z,21.13
2019-05-22T21:45:54.411Z,22.20
2019-05-22T21:51:01.907Z,18.77
2019-05-22T21:56:09.986Z,17.80
2019-05-22T22:01:26.105Z,18.13
2019-05-22T22:06:34.931Z,16.40
2019-05-22T22:11:44.029Z,24.17
2019-05-22T22:16:51.554Z,23.93
2019-05-22T22:21:59.603Z,19.47
2019-05-22T22:27:07.882Z,16.50
2019-05-22T22:32:17.565Z,20.07
2019-05-22T22:37:26.685Z,19.30
2019-05-22T22:42:36.940Z,17.93
2019-05-22T22:47:45.596Z,18.53
2019-05-22T22:52:53.086Z,20.47
2019-05-22T22:58:16.078Z,21.10
2019-05-22T23:03:14.619Z,15.37
2019-05-22T23:08:29.427Z,17.20
2019-05-22T23:13:37.622Z,17.63
2019-05-22T23:19:36.135Z,16.77
2019-05-22T23:24:43.945Z,19.20
2019-05-22T23:29:52.264Z,14.93
2019-05-22T23:35:01.366Z,16.23
2019-05-22T23:40:11.433Z,16.50
2019-05-22T23:45:22.221Z,14.43
2019-05-22T23:50:31.746Z,15.17
2019-05-22T23:55:41.162Z,20.93
